sensor_id;sensor_type;location;lat;lon;timestamp;P1;durP1;ratioP1;P2;durP2;ratioP2
61756;SDS011;57225;61.460;24.060;2022-07-04T00:01:20;6.10;;;1.77;;
61756;SDS011;57225;61.460;24.060;2022-07-04T00:04:05;5.22;;;1.60;;
61756;SDS011;57225;61.460;24.060;2022-07-04T00:06:49;4.90;;;1.88;;
61756;SDS011;57225;61.460;24.060;2022-07-04T00:09:33;4.65;;;1.77;;
61756;SDS011;57225;61.460;24.060;2022-07-04T00:12:17;3.40;;;1.30;;
61756;SDS011;57225;61.460;24.060;2022-07-04T00:15:03;3.95;;;1.65;;
61756;SDS011;57225;61.460;24.060;2022-07-04T00:17:48;4.32;;;1.67;;
61756;SDS011;57225;61.460;24.060;2022-07-04T00:20:33;3.00;;;1.55;;
61756;SDS011;57225;61.460;24.060;2022-07-04T00:23:17;4.25;;;1.73;;
61756;SDS011;57225;61.460;24.060;2022-07-04T00:26:02;3.60;;;1.40;;
61756;SDS011;57225;61.460;24.060;2022-07-04T00:28:46;5.43;;;1.35;;
61756;SDS011;57225;61.460;24.060;2022-07-04T00:31:31;3.55;;;1.35;;
61756;SDS011;57225;61.460;24.060;2022-07-04T00:34:16;3.67;;;1.60;;
61756;SDS011;57225;61.460;24.060;2022-07-04T00:37:01;3.05;;;1.60;;
61756;SDS011;57225;61.460;24.060;2022-07-04T00:39:46;4.53;;;1.50;;
61756;SDS011;57225;61.460;24.060;2022-07-04T00:42:31;3.17;;;1.60;;
61756;SDS011;57225;61.460;24.060;2022-07-04T00:45:15;3.95;;;1.60;;
61756;SDS011;57225;61.460;24.060;2022-07-04T00:47:59;3.33;;;1.70;;
61756;SDS011;57225;61.460;24.060;2022-07-04T00:50:47;4.72;;;1.60;;
61756;SDS011;57225;61.460;24.060;2022-07-04T00:53:32;4.22;;;1.90;;
61756;SDS011;57225;61.460;24.060;2022-07-04T00:56:18;2.33;;;1.55;;
61756;SDS011;57225;61.460;24.060;2022-07-04T00:59:03;4.40;;;1.70;;
61756;SDS011;57225;61.460;24.060;2022-07-04T01:01:50;3.40;;;1.60;;
61756;SDS011;57225;61.460;24.060;2022-07-04T01:04:34;3.17;;;1.65;;
61756;SDS011;57225;61.460;24.060;2022-07-04T01:07:19;4.38;;;1.80;;
61756;SDS011;57225;61.460;24.060;2022-07-04T01:10:03;3.67;;;1.70;;
61756;SDS011;57225;61.460;24.060;2022-07-04T01:12:48;7.05;;;1.75;;
61756;SDS011;57225;61.460;24.060;2022-07-04T01:15:32;5.70;;;1.95;;
61756;SDS011;57225;61.460;24.060;2022-07-04T01:18:17;8.77;;;1.77;;
61756;SDS011;57225;61.460;24.060;2022-07-04T01:21:01;2.30;;;1.60;;
61756;SDS011;57225;61.460;24.060;2022-07-04T01:23:46;2.70;;;1.65;;
61756;SDS011;57225;61.460;24.060;2022-07-04T01:26:31;3.35;;;1.70;;
61756;SDS011;57225;61.460;24.060;2022-07-04T01:29:15;5.32;;;1.60;;
61756;SDS011;57225;61.460;24.060;2022-07-04T01:32:05;3.10;;;1.90;;
61756;SDS011;57225;61.460;24.060;2022-07-04T01:37:35;2.92;;;1.98;;
61756;SDS011;57225;61.460;24.060;2022-07-04T01:40:19;4.38;;;1.63;;
61756;SDS011;57225;61.460;24.060;2022-07-04T01:43:04;3.75;;;1.88;;
61756;SDS011;57225;61.460;24.060;2022-07-04T01:45:48;3.45;;;1.50;;
61756;SDS011;57225;61.460;24.060;2022-07-04T01:48:34;2.85;;;1.60;;
61756;SDS011;57225;61.460;24.060;2022-07-04T01:51:18;3.47;;;1.70;;
61756;SDS011;57225;61.460;24.060;2022-07-04T01:54:02;3.20;;;1.70;;
61756;SDS011;57225;61.460;24.060;2022-07-04T01:56:46;3.50;;;1.67;;
61756;SDS011;57225;61.460;24.060;2022-07-04T01:59:31;2.10;;;1.55;;
61756;SDS011;57225;61.460;24.060;2022-07-04T02:02:34;5.20;;;2.03;;
61756;SDS011;57225;61.460;24.060;2022-07-04T02:05:18;7.63;;;2.83;;
61756;SDS011;57225;61.460;24.060;2022-07-04T02:08:06;4.38;;;2.28;;
61756;SDS011;57225;61.460;24.060;2022-07-04T02:10:52;3.65;;;1.90;;
61756;SDS011;57225;61.460;24.060;2022-07-04T02:13:36;3.55;;;1.60;;
61756;SDS011;57225;61.460;24.060;2022-07-04T02:16:20;4.20;;;1.80;;
61756;SDS011;57225;61.460;24.060;2022-07-04T02:19:05;5.93;;;1.85;;
61756;SDS011;57225;61.460;24.060;2022-07-04T02:21:49;4.28;;;1.80;;
61756;SDS011;57225;61.460;24.060;2022-07-04T02:24:36;3.28;;;1.55;;
61756;SDS011;57225;61.460;24.060;2022-07-04T02:27:21;3.75;;;1.50;;
61756;SDS011;57225;61.460;24.060;2022-07-04T02:30:06;3.20;;;1.58;;
61756;SDS011;57225;61.460;24.060;2022-07-04T02:32:50;3.00;;;1.70;;
61756;SDS011;57225;61.460;24.060;2022-07-04T02:35:35;4.95;;;1.77;;
61756;SDS011;57225;61.460;24.060;2022-07-04T02:38:19;8.13;;;1.80;;
61756;SDS011;57225;61.460;24.060;2022-07-04T02:41:03;4.60;;;1.80;;
61756;SDS011;57225;61.460;24.060;2022-07-04T02:43:48;6.05;;;1.70;;
61756;SDS011;57225;61.460;24.060;2022-07-04T02:46:32;3.97;;;1.60;;
61756;SDS011;57225;61.460;24.060;2022-07-04T02:49:17;2.40;;;1.50;;
61756;SDS011;57225;61.460;24.060;2022-07-04T02:52:01;3.03;;;1.65;;
61756;SDS011;57225;61.460;24.060;2022-07-04T02:54:45;2.95;;;1.58;;
61756;SDS011;57225;61.460;24.060;2022-07-04T02:57:30;5.50;;;1.95;;
61756;SDS011;57225;61.460;24.060;2022-07-04T03:00:14;4.13;;;1.63;;
61756;SDS011;57225;61.460;24.060;2022-07-04T03:02:58;3.45;;;1.50;;
61756;SDS011;57225;61.460;24.060;2022-07-04T03:05:42;4.40;;;1.60;;
61756;SDS011;57225;61.460;24.060;2022-07-04T03:08:26;2.20;;;1.48;;
61756;SDS011;57225;61.460;24.060;2022-07-04T03:11:10;2.63;;;1.55;;
61756;SDS011;57225;61.460;24.060;2022-07-04T03:13:55;3.00;;;1.55;;
61756;SDS011;57225;61.460;24.060;2022-07-04T03:16:40;2.90;;;1.70;;
61756;SDS011;57225;61.460;24.060;2022-07-04T03:19:24;3.03;;;1.70;;
61756;SDS011;57225;61.460;24.060;2022-07-04T03:22:09;3.55;;;1.55;;
61756;SDS011;57225;61.460;24.060;2022-07-04T03:24:53;3.22;;;1.70;;
61756;SDS011;57225;61.460;24.060;2022-07-04T03:27:38;5.32;;;2.20;;
61756;SDS011;57225;61.460;24.060;2022-07-04T03:30:23;4.50;;;1.73;;
61756;SDS011;57225;61.460;24.060;2022-07-04T03:33:07;5.60;;;1.75;;
61756;SDS011;57225;61.460;24.060;2022-07-04T03:35:51;4.47;;;1.77;;
61756;SDS011;57225;61.460;24.060;2022-07-04T03:38:36;2.83;;;1.70;;
61756;SDS011;57225;61.460;24.060;2022-07-04T03:41:20;8.48;;;2.35;;
61756;SDS011;57225;61.460;24.060;2022-07-04T03:44:04;5.88;;;2.20;;
61756;SDS011;57225;61.460;24.060;2022-07-04T03:46:48;2.80;;;1.48;;
61756;SDS011;57225;61.460;24.060;2022-07-04T03:49:32;8.23;;;1.80;;
61756;SDS011;57225;61.460;24.060;2022-07-04T03:52:17;9.75;;;2.00;;
61756;SDS011;57225;61.460;24.060;2022-07-04T03:55:01;5.35;;;1.77;;
61756;SDS011;57225;61.460;24.060;2022-07-04T03:57:46;3.35;;;1.45;;
61756;SDS011;57225;61.460;24.060;2022-07-04T04:00:30;4.00;;;1.50;;
61756;SDS011;57225;61.460;24.060;2022-07-04T04:03:15;2.72;;;1.23;;
61756;SDS011;57225;61.460;24.060;2022-07-04T04:06:17;5.00;;;1.40;;
61756;SDS011;57225;61.460;24.060;2022-07-04T04:09:04;5.38;;;2.20;;
61756;SDS011;57225;61.460;24.060;2022-07-04T04:11:49;5.82;;;1.23;;
61756;SDS011;57225;61.460;24.060;2022-07-04T04:14:33;4.03;;;1.40;;
61756;SDS011;57225;61.460;24.060;2022-07-04T04:17:17;3.97;;;1.30;;
61756;SDS011;57225;61.460;24.060;2022-07-04T04:20:01;5.28;;;1.52;;
61756;SDS011;57225;61.460;24.060;2022-07-04T04:22:46;3.20;;;1.40;;
61756;SDS011;57225;61.460;24.060;2022-07-04T04:25:30;3.92;;;1.55;;
61756;SDS011;57225;61.460;24.060;2022-07-04T04:28:15;5.75;;;1.75;;
61756;SDS011;57225;61.460;24.060;2022-07-04T04:30:59;5.85;;;1.33;;
61756;SDS011;57225;61.460;24.060;2022-07-04T04:33:43;3.05;;;1.38;;
61756;SDS011;57225;61.460;24.060;2022-07-04T04:36:28;6.97;;;1.50;;
61756;SDS011;57225;61.460;24.060;2022-07-04T04:39:12;6.35;;;1.50;;
61756;SDS011;57225;61.460;24.060;2022-07-04T04:41:57;5.10;;;1.88;;
61756;SDS011;57225;61.460;24.060;2022-07-04T04:44:41;4.50;;;1.50;;
61756;SDS011;57225;61.460;24.060;2022-07-04T04:47:26;3.15;;;1.40;;
61756;SDS011;57225;61.460;24.060;2022-07-04T04:50:10;6.90;;;1.55;;
61756;SDS011;57225;61.460;24.060;2022-07-04T04:52:55;7.78;;;1.60;;
61756;SDS011;57225;61.460;24.060;2022-07-04T04:55:41;4.25;;;1.45;;
61756;SDS011;57225;61.460;24.060;2022-07-04T04:58:25;5.95;;;1.60;;
61756;SDS011;57225;61.460;24.060;2022-07-04T05:01:10;2.50;;;1.13;;
61756;SDS011;57225;61.460;24.060;2022-07-04T05:03:54;3.05;;;1.10;;
61756;SDS011;57225;61.460;24.060;2022-07-04T05:06:39;3.67;;;1.42;;
61756;SDS011;57225;61.460;24.060;2022-07-04T05:09:23;11.18;;;1.45;;
61756;SDS011;57225;61.460;24.060;2022-07-04T05:12:10;2.35;;;1.10;;
61756;SDS011;57225;61.460;24.060;2022-07-04T05:14:55;3.65;;;1.10;;
61756;SDS011;57225;61.460;24.060;2022-07-04T05:17:39;6.35;;;1.23;;
61756;SDS011;57225;61.460;24.060;2022-07-04T05:20:24;3.85;;;1.20;;
61756;SDS011;57225;61.460;24.060;2022-07-04T05:23:08;3.63;;;1.20;;
61756;SDS011;57225;61.460;24.060;2022-07-04T05:25:52;7.03;;;1.00;;
61756;SDS011;57225;61.460;24.060;2022-07-04T05:28:37;2.80;;;0.93;;
61756;SDS011;57225;61.460;24.060;2022-07-04T05:31:21;3.25;;;1.10;;
61756;SDS011;57225;61.460;24.060;2022-07-04T05:34:05;2.60;;;0.90;;
61756;SDS011;57225;61.460;24.060;2022-07-04T05:36:49;4.45;;;1.00;;
61756;SDS011;57225;61.460;24.060;2022-07-04T05:39:34;2.97;;;1.00;;
61756;SDS011;57225;61.460;24.060;2022-07-04T05:42:19;5.20;;;1.02;;
61756;SDS011;57225;61.460;24.060;2022-07-04T05:45:03;3.00;;;1.10;;
61756;SDS011;57225;61.460;24.060;2022-07-04T05:47:48;5.57;;;0.98;;
61756;SDS011;57225;61.460;24.060;2022-07-04T05:50:32;4.32;;;1.20;;
61756;SDS011;57225;61.460;24.060;2022-07-04T05:53:17;4.07;;;1.20;;
61756;SDS011;57225;61.460;24.060;2022-07-04T05:56:01;4.80;;;1.00;;
61756;SDS011;57225;61.460;24.060;2022-07-04T05:58:46;8.57;;;1.50;;
61756;SDS011;57225;61.460;24.060;2022-07-04T06:01:30;2.03;;;0.90;;
61756;SDS011;57225;61.460;24.060;2022-07-04T06:04:15;2.78;;;1.02;;
61756;SDS011;57225;61.460;24.060;2022-07-04T06:06:59;6.88;;;1.20;;
61756;SDS011;57225;61.460;24.060;2022-07-04T06:09:44;5.05;;;1.05;;
61756;SDS011;57225;61.460;24.060;2022-07-04T06:12:28;4.88;;;1.13;;
61756;SDS011;57225;61.460;24.060;2022-07-04T06:15:13;3.97;;;1.00;;
61756;SDS011;57225;61.460;24.060;2022-07-04T06:17:58;2.17;;;0.85;;
61756;SDS011;57225;61.460;24.060;2022-07-04T06:20:43;2.60;;;1.00;;
61756;SDS011;57225;61.460;24.060;2022-07-04T06:23:28;4.72;;;1.30;;
61756;SDS011;57225;61.460;24.060;2022-07-04T06:26:12;1.65;;;1.00;;
61756;SDS011;57225;61.460;24.060;2022-07-04T06:28:57;3.90;;;1.05;;
61756;SDS011;57225;61.460;24.060;2022-07-04T06:31:41;3.33;;;1.00;;
61756;SDS011;57225;61.460;24.060;2022-07-04T06:34:25;3.10;;;0.90;;
61756;SDS011;57225;61.460;24.060;2022-07-04T06:37:29;5.28;;;0.70;;
61756;SDS011;57225;61.460;24.060;2022-07-04T06:40:13;4.40;;;0.93;;
61756;SDS011;57225;61.460;24.060;2022-07-04T06:42:57;2.67;;;1.05;;
61756;SDS011;57225;61.460;24.060;2022-07-04T06:45:41;4.35;;;0.90;;
61756;SDS011;57225;61.460;24.060;2022-07-04T06:48:26;3.70;;;1.15;;
61756;SDS011;57225;61.460;24.060;2022-07-04T06:51:10;2.33;;;0.70;;
61756;SDS011;57225;61.460;24.060;2022-07-04T06:53:55;8.43;;;1.33;;
61756;SDS011;57225;61.460;24.060;2022-07-04T06:56:39;4.68;;;1.00;;
61756;SDS011;57225;61.460;24.060;2022-07-04T06:59:24;2.70;;;0.93;;
61756;SDS011;57225;61.460;24.060;2022-07-04T07:02:08;3.60;;;0.85;;
61756;SDS011;57225;61.460;24.060;2022-07-04T07:04:55;4.13;;;0.75;;
61756;SDS011;57225;61.460;24.060;2022-07-04T07:07:41;4.80;;;1.20;;
61756;SDS011;57225;61.460;24.060;2022-07-04T07:10:25;4.80;;;1.20;;
61756;SDS011;57225;61.460;24.060;2022-07-04T07:13:09;5.78;;;1.13;;
61756;SDS011;57225;61.460;24.060;2022-07-04T07:15:53;4.05;;;1.10;;
61756;SDS011;57225;61.460;24.060;2022-07-04T07:18:38;4.50;;;1.00;;
61756;SDS011;57225;61.460;24.060;2022-07-04T07:21:22;1.35;;;0.80;;
61756;SDS011;57225;61.460;24.060;2022-07-04T07:24:07;4.05;;;1.20;;
61756;SDS011;57225;61.460;24.060;2022-07-04T07:26:52;4.10;;;1.08;;
61756;SDS011;57225;61.460;24.060;2022-07-04T07:29:36;4.28;;;0.90;;
61756;SDS011;57225;61.460;24.060;2022-07-04T07:32:21;3.42;;;1.15;;
61756;SDS011;57225;61.460;24.060;2022-07-04T07:35:06;2.38;;;1.13;;
61756;SDS011;57225;61.460;24.060;2022-07-04T07:37:50;4.35;;;1.15;;
61756;SDS011;57225;61.460;24.060;2022-07-04T07:40:34;6.40;;;1.33;;
61756;SDS011;57225;61.460;24.060;2022-07-04T07:43:18;7.30;;;1.08;;
61756;SDS011;57225;61.460;24.060;2022-07-04T07:46:04;4.00;;;0.93;;
61756;SDS011;57225;61.460;24.060;2022-07-04T07:48:50;7.00;;;1.20;;
61756;SDS011;57225;61.460;24.060;2022-07-04T07:51:34;5.18;;;1.13;;
61756;SDS011;57225;61.460;24.060;2022-07-04T07:54:19;5.70;;;1.15;;
61756;SDS011;57225;61.460;24.060;2022-07-04T07:57:04;1.50;;;0.65;;
61756;SDS011;57225;61.460;24.060;2022-07-04T07:59:48;5.57;;;1.00;;
61756;SDS011;57225;61.460;24.060;2022-07-04T08:02:34;1.05;;;0.70;;
61756;SDS011;57225;61.460;24.060;2022-07-04T08:05:38;3.90;;;1.00;;
61756;SDS011;57225;61.460;24.060;2022-07-04T08:08:22;6.53;;;0.93;;
61756;SDS011;57225;61.460;24.060;2022-07-04T08:11:08;3.50;;;1.00;;
61756;SDS011;57225;61.460;24.060;2022-07-04T08:13:53;3.72;;;0.80;;
61756;SDS011;57225;61.460;24.060;2022-07-04T08:16:37;4.90;;;0.90;;
61756;SDS011;57225;61.460;24.060;2022-07-04T08:19:22;2.05;;;0.95;;
61756;SDS011;57225;61.460;24.060;2022-07-04T08:22:09;5.68;;;0.93;;
61756;SDS011;57225;61.460;24.060;2022-07-04T08:24:53;2.70;;;0.80;;
61756;SDS011;57225;61.460;24.060;2022-07-04T08:27:37;3.33;;;0.77;;
61756;SDS011;57225;61.460;24.060;2022-07-04T08:30:21;5.93;;;1.05;;
61756;SDS011;57225;61.460;24.060;2022-07-04T08:33:05;7.10;;;1.13;;
61756;SDS011;57225;61.460;24.060;2022-07-04T08:35:50;8.65;;;1.17;;
61756;SDS011;57225;61.460;24.060;2022-07-04T08:38:34;4.03;;;0.90;;
61756;SDS011;57225;61.460;24.060;2022-07-04T08:41:19;2.22;;;0.70;;
61756;SDS011;57225;61.460;24.060;2022-07-04T08:44:03;5.90;;;0.98;;
61756;SDS011;57225;61.460;24.060;2022-07-04T08:46:50;6.75;;;1.25;;
61756;SDS011;57225;61.460;24.060;2022-07-04T08:49:36;2.53;;;0.95;;
61756;SDS011;57225;61.460;24.060;2022-07-04T08:52:32;4.03;;;0.85;;
61756;SDS011;57225;61.460;24.060;2022-07-04T08:55:21;6.50;;;1.00;;
61756;SDS011;57225;61.460;24.060;2022-07-04T08:58:25;3.97;;;1.02;;
61756;SDS011;57225;61.460;24.060;2022-07-04T09:01:13;4.33;;;0.93;;
61756;SDS011;57225;61.460;24.060;2022-07-04T09:04:01;4.97;;;0.90;;
61756;SDS011;57225;61.460;24.060;2022-07-04T09:06:45;2.28;;;1.17;;
61756;SDS011;57225;61.460;24.060;2022-07-04T09:09:31;3.55;;;0.90;;
61756;SDS011;57225;61.460;24.060;2022-07-04T09:12:16;5.25;;;1.10;;
61756;SDS011;57225;61.460;24.060;2022-07-04T09:15:01;4.78;;;1.08;;
61756;SDS011;57225;61.460;24.060;2022-07-04T09:17:46;2.92;;;1.00;;
61756;SDS011;57225;61.460;24.060;2022-07-04T09:20:31;1.27;;;0.70;;
61756;SDS011;57225;61.460;24.060;2022-07-04T09:23:18;4.88;;;0.82;;
61756;SDS011;57225;61.460;24.060;2022-07-04T09:26:11;2.83;;;0.68;;
61756;SDS011;57225;61.460;24.060;2022-07-04T09:29:03;1.67;;;0.70;;
61756;SDS011;57225;61.460;24.060;2022-07-04T09:31:47;2.05;;;0.65;;
61756;SDS011;57225;61.460;24.060;2022-07-04T09:34:31;4.70;;;0.90;;
61756;SDS011;57225;61.460;24.060;2022-07-04T09:37:16;5.15;;;0.90;;
61756;SDS011;57225;61.460;24.060;2022-07-04T09:40:00;2.80;;;0.90;;
61756;SDS011;57225;61.460;24.060;2022-07-04T09:42:44;2.92;;;0.73;;
61756;SDS011;57225;61.460;24.060;2022-07-04T09:45:28;2.83;;;0.80;;
61756;SDS011;57225;61.460;24.060;2022-07-04T09:48:13;6.00;;;1.15;;
61756;SDS011;57225;61.460;24.060;2022-07-04T09:50:57;4.97;;;0.88;;
61756;SDS011;57225;61.460;24.060;2022-07-04T09:53:42;5.28;;;1.10;;
61756;SDS011;57225;61.460;24.060;2022-07-04T09:59:44;4.05;;;0.68;;
61756;SDS011;57225;61.460;24.060;2022-07-04T10:02:29;6.22;;;0.80;;
61756;SDS011;57225;61.460;24.060;2022-07-04T10:05:17;4.22;;;0.95;;
61756;SDS011;57225;61.460;24.060;2022-07-04T10:08:04;4.45;;;0.80;;
61756;SDS011;57225;61.460;24.060;2022-07-04T10:10:49;2.30;;;0.70;;
61756;SDS011;57225;61.460;24.060;2022-07-04T10:13:34;6.13;;;1.02;;
61756;SDS011;57225;61.460;24.060;2022-07-04T10:16:19;2.88;;;1.10;;
61756;SDS011;57225;61.460;24.060;2022-07-04T10:19:04;3.28;;;0.88;;
61756;SDS011;57225;61.460;24.060;2022-07-04T10:21:49;3.33;;;1.10;;
61756;SDS011;57225;61.460;24.060;2022-07-04T10:24:34;2.25;;;0.95;;
61756;SDS011;57225;61.460;24.060;2022-07-04T10:27:18;1.98;;;0.80;;
61756;SDS011;57225;61.460;24.060;2022-07-04T10:30:03;1.60;;;0.60;;
61756;SDS011;57225;61.460;24.060;2022-07-04T10:32:49;3.30;;;0.80;;
61756;SDS011;57225;61.460;24.060;2022-07-04T10:38:33;3.65;;;1.05;;
61756;SDS011;57225;61.460;24.060;2022-07-04T10:41:30;10.30;;;1.15;;
61756;SDS011;57225;61.460;24.060;2022-07-04T10:44:14;1.27;;;0.68;;
61756;SDS011;57225;61.460;24.060;2022-07-04T10:47:05;4.00;;;1.00;;
61756;SDS011;57225;61.460;24.060;2022-07-04T10:50:04;4.93;;;0.90;;
61756;SDS011;57225;61.460;24.060;2022-07-04T10:53:08;3.03;;;0.80;;
61756;SDS011;57225;61.460;24.060;2022-07-04T10:55:54;6.93;;;1.52;;
61756;SDS011;57225;61.460;24.060;2022-07-04T10:58:59;5.93;;;0.80;;
61756;SDS011;57225;61.460;24.060;2022-07-04T11:05:05;2.28;;;0.80;;
61756;SDS011;57225;61.460;24.060;2022-07-04T11:07:56;2.80;;;0.70;;
61756;SDS011;57225;61.460;24.060;2022-07-04T11:10:41;2.63;;;1.00;;
61756;SDS011;57225;61.460;24.060;2022-07-04T11:13:26;4.15;;;0.90;;
61756;SDS011;57225;61.460;24.060;2022-07-04T11:16:10;2.88;;;0.80;;
61756;SDS011;57225;61.460;24.060;2022-07-04T11:18:55;1.52;;;0.77;;
61756;SDS011;57225;61.460;24.060;2022-07-04T11:21:39;2.05;;;0.90;;
61756;SDS011;57225;61.460;24.060;2022-07-04T11:24:24;4.80;;;0.90;;
61756;SDS011;57225;61.460;24.060;2022-07-04T11:27:09;3.28;;;0.90;;
61756;SDS011;57225;61.460;24.060;2022-07-04T11:29:54;8.77;;;1.20;;
61756;SDS011;57225;61.460;24.060;2022-07-04T11:32:39;3.97;;;0.93;;
61756;SDS011;57225;61.460;24.060;2022-07-04T11:35:24;3.38;;;0.90;;
61756;SDS011;57225;61.460;24.060;2022-07-04T11:38:09;3.78;;;1.08;;
61756;SDS011;57225;61.460;24.060;2022-07-04T11:40:53;5.18;;;0.90;;
61756;SDS011;57225;61.460;24.060;2022-07-04T11:43:56;1.60;;;0.80;;
61756;SDS011;57225;61.460;24.060;2022-07-04T11:47:07;3.33;;;0.98;;
61756;SDS011;57225;61.460;24.060;2022-07-04T11:49:54;3.83;;;1.23;;
61756;SDS011;57225;61.460;24.060;2022-07-04T11:52:41;4.88;;;0.80;;
61756;SDS011;57225;61.460;24.060;2022-07-04T11:55:29;3.03;;;0.95;;
61756;SDS011;57225;61.460;24.060;2022-07-04T11:58:14;6.13;;;1.23;;
61756;SDS011;57225;61.460;24.060;2022-07-04T12:00:58;3.88;;;0.90;;
61756;SDS011;57225;61.460;24.060;2022-07-04T12:03:43;6.93;;;1.00;;
61756;SDS011;57225;61.460;24.060;2022-07-04T12:06:27;1.63;;;0.70;;
61756;SDS011;57225;61.460;24.060;2022-07-04T12:09:12;3.85;;;0.82;;
61756;SDS011;57225;61.460;24.060;2022-07-04T12:14:56;2.90;;;0.90;;
61756;SDS011;57225;61.460;24.060;2022-07-04T12:17:41;2.25;;;0.93;;
61756;SDS011;57225;61.460;24.060;2022-07-04T12:20:25;7.72;;;1.02;;
61756;SDS011;57225;61.460;24.060;2022-07-04T12:23:10;2.10;;;0.75;;
61756;SDS011;57225;61.460;24.060;2022-07-04T12:25:54;3.50;;;0.82;;
61756;SDS011;57225;61.460;24.060;2022-07-04T12:28:39;3.00;;;1.08;;
61756;SDS011;57225;61.460;24.060;2022-07-04T12:31:38;6.97;;;0.80;;
61756;SDS011;57225;61.460;24.060;2022-07-04T12:34:26;5.05;;;1.13;;
61756;SDS011;57225;61.460;24.060;2022-07-04T12:37:11;6.38;;;1.10;;
61756;SDS011;57225;61.460;24.060;2022-07-04T12:39:56;6.07;;;1.10;;
61756;SDS011;57225;61.460;24.060;2022-07-04T12:42:54;6.57;;;0.77;;
61756;SDS011;57225;61.460;24.060;2022-07-04T12:48:27;6.32;;;0.90;;
61756;SDS011;57225;61.460;24.060;2022-07-04T12:51:19;3.83;;;1.10;;
61756;SDS011;57225;61.460;24.060;2022-07-04T12:54:06;4.22;;;0.82;;
61756;SDS011;57225;61.460;24.060;2022-07-04T12:57:01;2.85;;;0.90;;
61756;SDS011;57225;61.460;24.060;2022-07-04T12:59:50;4.40;;;0.80;;
61756;SDS011;57225;61.460;24.060;2022-07-04T13:02:35;2.80;;;0.88;;
61756;SDS011;57225;61.460;24.060;2022-07-04T13:05:20;6.95;;;1.20;;
61756;SDS011;57225;61.460;24.060;2022-07-04T13:08:05;3.78;;;0.85;;
61756;SDS011;57225;61.460;24.060;2022-07-04T13:10:50;5.63;;;0.95;;
61756;SDS011;57225;61.460;24.060;2022-07-04T13:13:54;2.47;;;0.80;;
61756;SDS011;57225;61.460;24.060;2022-07-04T13:16:38;5.78;;;0.95;;
61756;SDS011;57225;61.460;24.060;2022-07-04T13:19:22;4.97;;;0.80;;
61756;SDS011;57225;61.460;24.060;2022-07-04T13:22:07;2.33;;;0.80;;
61756;SDS011;57225;61.460;24.060;2022-07-04T13:24:51;1.20;;;0.60;;
61756;SDS011;57225;61.460;24.060;2022-07-04T13:27:36;3.17;;;0.88;;
61756;SDS011;57225;61.460;24.060;2022-07-04T13:30:20;3.03;;;0.93;;
61756;SDS011;57225;61.460;24.060;2022-07-04T13:33:04;2.22;;;0.80;;
61756;SDS011;57225;61.460;24.060;2022-07-04T13:35:49;1.13;;;0.70;;
61756;SDS011;57225;61.460;24.060;2022-07-04T13:38:34;2.35;;;0.90;;
61756;SDS011;57225;61.460;24.060;2022-07-04T13:41:18;1.42;;;0.85;;
61756;SDS011;57225;61.460;24.060;2022-07-04T13:44:03;3.25;;;1.00;;
61756;SDS011;57225;61.460;24.060;2022-07-04T13:46:48;3.13;;;0.90;;
61756;SDS011;57225;61.460;24.060;2022-07-04T13:49:33;3.20;;;1.00;;
61756;SDS011;57225;61.460;24.060;2022-07-04T13:52:17;5.38;;;0.88;;
61756;SDS011;57225;61.460;24.060;2022-07-04T13:55:01;6.47;;;1.10;;
61756;SDS011;57225;61.460;24.060;2022-07-04T13:57:45;4.72;;;1.15;;
61756;SDS011;57225;61.460;24.060;2022-07-04T14:00:30;3.55;;;1.00;;
61756;SDS011;57225;61.460;24.060;2022-07-04T14:03:15;5.32;;;0.98;;
61756;SDS011;57225;61.460;24.060;2022-07-04T14:06:00;3.15;;;0.95;;
61756;SDS011;57225;61.460;24.060;2022-07-04T14:08:44;1.40;;;0.80;;
61756;SDS011;57225;61.460;24.060;2022-07-04T14:11:29;2.42;;;0.80;;
61756;SDS011;57225;61.460;24.060;2022-07-04T14:14:13;3.28;;;0.85;;
61756;SDS011;57225;61.460;24.060;2022-07-04T14:16:57;1.70;;;0.80;;
61756;SDS011;57225;61.460;24.060;2022-07-04T14:19:42;1.42;;;0.70;;
61756;SDS011;57225;61.460;24.060;2022-07-04T14:22:27;2.40;;;0.90;;
61756;SDS011;57225;61.460;24.060;2022-07-04T14:25:11;2.65;;;0.80;;
61756;SDS011;57225;61.460;24.060;2022-07-04T14:27:56;2.63;;;0.77;;
61756;SDS011;57225;61.460;24.060;2022-07-04T14:30:40;1.50;;;0.90;;
61756;SDS011;57225;61.460;24.060;2022-07-04T14:33:24;2.20;;;0.93;;
61756;SDS011;57225;61.460;24.060;2022-07-04T14:36:09;2.47;;;0.80;;
61756;SDS011;57225;61.460;24.060;2022-07-04T14:38:56;2.15;;;0.70;;
61756;SDS011;57225;61.460;24.060;2022-07-04T14:41:41;5.65;;;0.93;;
61756;SDS011;57225;61.460;24.060;2022-07-04T14:44:25;3.38;;;0.95;;
61756;SDS011;57225;61.460;24.060;2022-07-04T14:47:10;1.90;;;0.70;;
61756;SDS011;57225;61.460;24.060;2022-07-04T14:49:54;1.90;;;0.60;;
61756;SDS011;57225;61.460;24.060;2022-07-04T14:52:38;8.57;;;1.10;;
61756;SDS011;57225;61.460;24.060;2022-07-04T14:55:22;2.10;;;0.90;;
61756;SDS011;57225;61.460;24.060;2022-07-04T14:58:07;2.88;;;0.90;;
61756;SDS011;57225;61.460;24.060;2022-07-04T15:00:51;1.15;;;0.80;;
61756;SDS011;57225;61.460;24.060;2022-07-04T15:03:35;7.43;;;1.10;;
61756;SDS011;57225;61.460;24.060;2022-07-04T15:06:20;5.90;;;1.02;;
61756;SDS011;57225;61.460;24.060;2022-07-04T15:09:05;2.03;;;0.70;;
61756;SDS011;57225;61.460;24.060;2022-07-04T15:11:49;2.22;;;0.93;;
61756;SDS011;57225;61.460;24.060;2022-07-04T15:14:35;2.20;;;0.80;;
61756;SDS011;57225;61.460;24.060;2022-07-04T15:17:19;4.88;;;0.85;;
61756;SDS011;57225;61.460;24.060;2022-07-04T15:20:04;4.75;;;0.88;;
61756;SDS011;57225;61.460;24.060;2022-07-04T15:23:08;1.42;;;0.70;;
61756;SDS011;57225;61.460;24.060;2022-07-04T15:26:11;3.20;;;0.85;;
61756;SDS011;57225;61.460;24.060;2022-07-04T15:28:55;5.65;;;1.05;;
61756;SDS011;57225;61.460;24.060;2022-07-04T15:31:40;0.98;;;0.52;;
61756;SDS011;57225;61.460;24.060;2022-07-04T15:34:25;1.95;;;0.65;;
61756;SDS011;57225;61.460;24.060;2022-07-04T15:37:09;2.05;;;0.50;;
61756;SDS011;57225;61.460;24.060;2022-07-04T15:39:53;2.50;;;0.50;;
61756;SDS011;57225;61.460;24.060;2022-07-04T15:42:38;2.90;;;0.60;;
61756;SDS011;57225;61.460;24.060;2022-07-04T15:45:22;3.25;;;0.70;;
61756;SDS011;57225;61.460;24.060;2022-07-04T15:48:07;3.70;;;0.70;;
61756;SDS011;57225;61.460;24.060;2022-07-04T15:50:51;0.80;;;0.52;;
61756;SDS011;57225;61.460;24.060;2022-07-04T15:53:35;1.25;;;0.52;;
61756;SDS011;57225;61.460;24.060;2022-07-04T15:56:20;1.30;;;0.70;;
61756;SDS011;57225;61.460;24.060;2022-07-04T15:59:07;1.77;;;0.68;;
61756;SDS011;57225;61.460;24.060;2022-07-04T16:01:51;5.32;;;0.75;;
61756;SDS011;57225;61.460;24.060;2022-07-04T16:04:36;3.03;;;0.80;;
61756;SDS011;57225;61.460;24.060;2022-07-04T16:07:20;4.15;;;0.70;;
61756;SDS011;57225;61.460;24.060;2022-07-04T16:10:05;1.50;;;0.60;;
61756;SDS011;57225;61.460;24.060;2022-07-04T16:12:50;1.77;;;0.60;;
61756;SDS011;57225;61.460;24.060;2022-07-04T16:15:34;1.55;;;0.77;;
61756;SDS011;57225;61.460;24.060;2022-07-04T16:18:18;2.20;;;0.63;;
61756;SDS011;57225;61.460;24.060;2022-07-04T16:21:02;0.73;;;0.45;;
61756;SDS011;57225;61.460;24.060;2022-07-04T16:23:47;1.73;;;0.75;;
61756;SDS011;57225;61.460;24.060;2022-07-04T16:26:31;2.33;;;0.70;;
61756;SDS011;57225;61.460;24.060;2022-07-04T16:29:15;2.80;;;0.52;;
61756;SDS011;57225;61.460;24.060;2022-07-04T16:31:59;1.90;;;0.60;;
61756;SDS011;57225;61.460;24.060;2022-07-04T16:34:43;2.08;;;0.63;;
61756;SDS011;57225;61.460;24.060;2022-07-04T16:37:27;5.65;;;1.20;;
61756;SDS011;57225;61.460;24.060;2022-07-04T16:40:12;2.83;;;0.98;;